sensor_id;sensor_type;location;lat;lon;timestamp;P1;durP1;ratioP1;P2;durP2;ratioP2
6825;SDS011;3451;52.476;13.316;2023-07-30T00:00:35;5.23;;;3.87;;
6825;SDS011;3451;52.476;13.316;2023-07-30T00:03:02;4.40;;;3.80;;
6825;SDS011;3451;52.476;13.316;2023-07-30T00:05:28;8.23;;;4.00;;
6825;SDS011;3451;52.476;13.316;2023-07-30T00:07:55;5.63;;;3.97;;
6825;SDS011;3451;52.476;13.316;2023-07-30T00:10:21;5.57;;;3.73;;
6825;SDS011;3451;52.476;13.316;2023-07-30T00:12:48;4.93;;;3.50;;
6825;SDS011;3451;52.476;13.316;2023-07-30T00:15:14;4.47;;;3.47;;
6825;SDS011;3451;52.476;13.316;2023-07-30T00:17:40;5.30;;;3.80;;
6825;SDS011;3451;52.476;13.316;2023-07-30T00:20:07;4.83;;;3.70;;
6825;SDS011;3451;52.476;13.316;2023-07-30T00:22:35;5.77;;;3.67;;
6825;SDS011;3451;52.476;13.316;2023-07-30T00:25:01;4.47;;;3.97;;
6825;SDS011;3451;52.476;13.316;2023-07-30T00:27:27;5.80;;;3.53;;
6825;SDS011;3451;52.476;13.316;2023-07-30T00:29:54;5.60;;;3.77;;
6825;SDS011;3451;52.476;13.316;2023-07-30T00:32:20;5.60;;;3.60;;
6825;SDS011;3451;52.476;13.316;2023-07-30T00:34:46;4.37;;;3.50;;
6825;SDS011;3451;52.476;13.316;2023-07-30T00:37:13;5.50;;;3.53;;
6825;SDS011;3451;52.476;13.316;2023-07-30T00:39:39;6.37;;;3.80;;
6825;SDS011;3451;52.476;13.316;2023-07-30T00:42:05;5.27;;;3.40;;
6825;SDS011;3451;52.476;13.316;2023-07-30T00:44:32;4.53;;;3.50;;
6825;SDS011;3451;52.476;13.316;2023-07-30T00:46:58;7.33;;;3.70;;
6825;SDS011;3451;52.476;13.316;2023-07-30T00:49:25;3.63;;;3.30;;
6825;SDS011;3451;52.476;13.316;2023-07-30T00:51:51;4.73;;;3.60;;
6825;SDS011;3451;52.476;13.316;2023-07-30T00:54:18;4.50;;;3.40;;
6825;SDS011;3451;52.476;13.316;2023-07-30T00:56:46;6.03;;;3.60;;
6825;SDS011;3451;52.476;13.316;2023-07-30T00:59:15;5.50;;;3.87;;
6825;SDS011;3451;52.476;13.316;2023-07-30T01:01:41;4.60;;;3.60;;
6825;SDS011;3451;52.476;13.316;2023-07-30T01:04:08;5.97;;;3.80;;
6825;SDS011;3451;52.476;13.316;2023-07-30T01:06:35;5.17;;;3.50;;
6825;SDS011;3451;52.476;13.316;2023-07-30T01:09:01;4.53;;;3.53;;
6825;SDS011;3451;52.476;13.316;2023-07-30T01:11:28;6.20;;;3.47;;
6825;SDS011;3451;52.476;13.316;2023-07-30T01:13:55;3.37;;;3.07;;
6825;SDS011;3451;52.476;13.316;2023-07-30T01:16:22;5.50;;;3.60;;
6825;SDS011;3451;52.476;13.316;2023-07-30T01:18:48;4.80;;;3.47;;
6825;SDS011;3451;52.476;13.316;2023-07-30T01:21:15;3.53;;;3.23;;
6825;SDS011;3451;52.476;13.316;2023-07-30T01:23:41;4.43;;;3.73;;
6825;SDS011;3451;52.476;13.316;2023-07-30T01:26:08;6.23;;;3.67;;
6825;SDS011;3451;52.476;13.316;2023-07-30T01:28:36;5.37;;;3.87;;
6825;SDS011;3451;52.476;13.316;2023-07-30T01:31:04;3.90;;;3.50;;
6825;SDS011;3451;52.476;13.316;2023-07-30T01:33:31;4.53;;;3.63;;
6825;SDS011;3451;52.476;13.316;2023-07-30T01:35:58;4.17;;;3.13;;
6825;SDS011;3451;52.476;13.316;2023-07-30T01:38:25;3.53;;;3.10;;
6825;SDS011;3451;52.476;13.316;2023-07-30T01:40:51;4.97;;;3.47;;
6825;SDS011;3451;52.476;13.316;2023-07-30T01:43:18;4.40;;;3.67;;
6825;SDS011;3451;52.476;13.316;2023-07-30T01:45:44;3.57;;;3.27;;
6825;SDS011;3451;52.476;13.316;2023-07-30T01:48:11;3.87;;;3.23;;
6825;SDS011;3451;52.476;13.316;2023-07-30T01:50:37;4.60;;;3.37;;
6825;SDS011;3451;52.476;13.316;2023-07-30T01:53:03;4.97;;;3.57;;
6825;SDS011;3451;52.476;13.316;2023-07-30T01:55:30;5.83;;;3.60;;
6825;SDS011;3451;52.476;13.316;2023-07-30T01:57:56;4.30;;;3.40;;
6825;SDS011;3451;52.476;13.316;2023-07-30T02:00:22;6.03;;;3.50;;
6825;SDS011;3451;52.476;13.316;2023-07-30T02:02:49;5.97;;;3.70;;
6825;SDS011;3451;52.476;13.316;2023-07-30T02:05:15;4.33;;;3.60;;
6825;SDS011;3451;52.476;13.316;2023-07-30T02:07:42;4.17;;;3.17;;
6825;SDS011;3451;52.476;13.316;2023-07-30T02:10:09;5.27;;;3.43;;
6825;SDS011;3451;52.476;13.316;2023-07-30T02:12:35;4.50;;;3.60;;
6825;SDS011;3451;52.476;13.316;2023-07-30T02:15:01;6.07;;;3.43;;
6825;SDS011;3451;52.476;13.316;2023-07-30T02:17:28;6.87;;;3.40;;
6825;SDS011;3451;52.476;13.316;2023-07-30T02:19:54;4.20;;;3.43;;
6825;SDS011;3451;52.476;13.316;2023-07-30T02:22:21;3.50;;;3.20;;
6825;SDS011;3451;52.476;13.316;2023-07-30T02:24:47;4.50;;;3.40;;
6825;SDS011;3451;52.476;13.316;2023-07-30T02:27:13;4.23;;;3.50;;
6825;SDS011;3451;52.476;13.316;2023-07-30T02:29:40;4.53;;;3.27;;
6825;SDS011;3451;52.476;13.316;2023-07-30T02:32:06;4.83;;;3.40;;
6825;SDS011;3451;52.476;13.316;2023-07-30T02:34:33;4.17;;;3.37;;
6825;SDS011;3451;52.476;13.316;2023-07-30T02:36:59;6.53;;;3.50;;
6825;SDS011;3451;52.476;13.316;2023-07-30T02:39:31;4.33;;;3.80;;
6825;SDS011;3451;52.476;13.316;2023-07-30T02:41:57;4.67;;;3.27;;
6825;SDS011;3451;52.476;13.316;2023-07-30T02:44:23;4.67;;;3.50;;
6825;SDS011;3451;52.476;13.316;2023-07-30T02:46:50;5.93;;;3.80;;
6825;SDS011;3451;52.476;13.316;2023-07-30T02:49:16;4.57;;;3.40;;
6825;SDS011;3451;52.476;13.316;2023-07-30T02:51:42;5.37;;;3.80;;
6825;SDS011;3451;52.476;13.316;2023-07-30T02:54:14;7.93;;;3.80;;
6825;SDS011;3451;52.476;13.316;2023-07-30T02:56:43;5.33;;;3.77;;
6825;SDS011;3451;52.476;13.316;2023-07-30T02:59:09;4.40;;;3.53;;
6825;SDS011;3451;52.476;13.316;2023-07-30T03:01:35;7.23;;;3.90;;
6825;SDS011;3451;52.476;13.316;2023-07-30T03:04:03;7.57;;;3.80;;
6825;SDS011;3451;52.476;13.316;2023-07-30T03:06:29;7.23;;;3.90;;
6825;SDS011;3451;52.476;13.316;2023-07-30T03:08:56;5.67;;;3.80;;
6825;SDS011;3451;52.476;13.316;2023-07-30T03:11:23;4.20;;;3.80;;
6825;SDS011;3451;52.476;13.316;2023-07-30T03:13:49;6.30;;;3.90;;
6825;SDS011;3451;52.476;13.316;2023-07-30T03:16:16;7.20;;;3.80;;
6825;SDS011;3451;52.476;13.316;2023-07-30T03:18:42;6.77;;;3.50;;
6825;SDS011;3451;52.476;13.316;2023-07-30T03:21:08;6.83;;;3.43;;
6825;SDS011;3451;52.476;13.316;2023-07-30T03:23:35;5.53;;;3.80;;
6825;SDS011;3451;52.476;13.316;2023-07-30T03:26:01;5.30;;;4.00;;
6825;SDS011;3451;52.476;13.316;2023-07-30T03:28:27;5.37;;;4.13;;
6825;SDS011;3451;52.476;13.316;2023-07-30T03:30:54;7.63;;;3.97;;
6825;SDS011;3451;52.476;13.316;2023-07-30T03:33:20;5.73;;;4.10;;
6825;SDS011;3451;52.476;13.316;2023-07-30T03:35:47;5.70;;;3.37;;
6825;SDS011;3451;52.476;13.316;2023-07-30T03:38:14;5.73;;;3.93;;
6825;SDS011;3451;52.476;13.316;2023-07-30T03:40:40;5.20;;;3.63;;
6825;SDS011;3451;52.476;13.316;2023-07-30T03:43:07;4.10;;;3.70;;
6825;SDS011;3451;52.476;13.316;2023-07-30T03:45:33;4.20;;;3.80;;
6825;SDS011;3451;52.476;13.316;2023-07-30T03:47:59;4.77;;;3.80;;
6825;SDS011;3451;52.476;13.316;2023-07-30T03:50:26;7.30;;;4.60;;
6825;SDS011;3451;52.476;13.316;2023-07-30T03:52:52;5.57;;;4.50;;
6825;SDS011;3451;52.476;13.316;2023-07-30T03:55:19;5.77;;;4.40;;
6825;SDS011;3451;52.476;13.316;2023-07-30T03:57:45;4.20;;;3.80;;
6825;SDS011;3451;52.476;13.316;2023-07-30T04:00:12;5.27;;;4.27;;
6825;SDS011;3451;52.476;13.316;2023-07-30T04:02:38;5.07;;;4.20;;
6825;SDS011;3451;52.476;13.316;2023-07-30T04:05:05;4.50;;;4.07;;
6825;SDS011;3451;52.476;13.316;2023-07-30T04:07:31;4.73;;;4.20;;
6825;SDS011;3451;52.476;13.316;2023-07-30T04:09:57;4.60;;;4.20;;
6825;SDS011;3451;52.476;13.316;2023-07-30T04:12:24;4.90;;;4.30;;
6825;SDS011;3451;52.476;13.316;2023-07-30T04:14:50;5.60;;;4.77;;
6825;SDS011;3451;52.476;13.316;2023-07-30T04:17:16;5.27;;;4.77;;
6825;SDS011;3451;52.476;13.316;2023-07-30T04:19:43;6.63;;;5.40;;
6825;SDS011;3451;52.476;13.316;2023-07-30T04:22:09;6.90;;;5.20;;
6825;SDS011;3451;52.476;13.316;2023-07-30T04:24:36;6.30;;;4.97;;
6825;SDS011;3451;52.476;13.316;2023-07-30T04:27:02;5.20;;;4.70;;
6825;SDS011;3451;52.476;13.316;2023-07-30T04:29:29;5.80;;;5.00;;
6825;SDS011;3451;52.476;13.316;2023-07-30T04:31:55;5.60;;;5.10;;
6825;SDS011;3451;52.476;13.316;2023-07-30T04:34:21;5.80;;;5.20;;
6825;SDS011;3451;52.476;13.316;2023-07-30T04:36:48;7.87;;;5.30;;
6825;SDS011;3451;52.476;13.316;2023-07-30T04:39:14;5.80;;;5.30;;
6825;SDS011;3451;52.476;13.316;2023-07-30T04:41:41;7.40;;;5.53;;
6825;SDS011;3451;52.476;13.316;2023-07-30T04:44:07;5.63;;;5.07;;
6825;SDS011;3451;52.476;13.316;2023-07-30T04:46:34;8.07;;;4.70;;
6825;SDS011;3451;52.476;13.316;2023-07-30T04:49:01;6.53;;;5.20;;
6825;SDS011;3451;52.476;13.316;2023-07-30T04:51:28;7.80;;;5.33;;
6825;SDS011;3451;52.476;13.316;2023-07-30T04:53:54;6.87;;;5.07;;
6825;SDS011;3451;52.476;13.316;2023-07-30T04:56:21;5.13;;;4.63;;
6825;SDS011;3451;52.476;13.316;2023-07-30T04:58:47;6.10;;;5.03;;
6825;SDS011;3451;52.476;13.316;2023-07-30T05:01:13;5.40;;;4.90;;
6825;SDS011;3451;52.476;13.316;2023-07-30T05:03:40;5.47;;;4.97;;
6825;SDS011;3451;52.476;13.316;2023-07-30T05:06:06;5.60;;;5.03;;
6825;SDS011;3451;52.476;13.316;2023-07-30T05:08:33;5.40;;;4.90;;
6825;SDS011;3451;52.476;13.316;2023-07-30T05:10:59;5.17;;;4.50;;
6825;SDS011;3451;52.476;13.316;2023-07-30T05:13:26;4.80;;;4.40;;
6825;SDS011;3451;52.476;13.316;2023-07-30T05:15:52;7.20;;;4.50;;
6825;SDS011;3451;52.476;13.316;2023-07-30T05:18:18;4.90;;;4.20;;
6825;SDS011;3451;52.476;13.316;2023-07-30T05:20:48;8.13;;;4.47;;
6825;SDS011;3451;52.476;13.316;2023-07-30T05:23:14;5.07;;;4.20;;
6825;SDS011;3451;52.476;13.316;2023-07-30T05:25:41;4.53;;;4.13;;
6825;SDS011;3451;52.476;13.316;2023-07-30T05:28:07;4.30;;;3.90;;
6825;SDS011;3451;52.476;13.316;2023-07-30T05:30:33;5.90;;;4.30;;
6825;SDS011;3451;52.476;13.316;2023-07-30T05:33:00;4.07;;;3.67;;
6825;SDS011;3451;52.476;13.316;2023-07-30T05:35:26;4.60;;;3.90;;
6825;SDS011;3451;52.476;13.316;2023-07-30T05:37:54;4.30;;;3.90;;
6825;SDS011;3451;52.476;13.316;2023-07-30T05:40:21;4.07;;;3.67;;
6825;SDS011;3451;52.476;13.316;2023-07-30T05:42:48;4.40;;;3.60;;
6825;SDS011;3451;52.476;13.316;2023-07-30T05:45:14;4.00;;;3.60;;
6825;SDS011;3451;52.476;13.316;2023-07-30T05:47:40;3.60;;;3.30;;
6825;SDS011;3451;52.476;13.316;2023-07-30T05:50:07;6.20;;;3.80;;
6825;SDS011;3451;52.476;13.316;2023-07-30T05:52:34;5.17;;;3.23;;
6825;SDS011;3451;52.476;13.316;2023-07-30T05:55:00;3.90;;;3.50;;
6825;SDS011;3451;52.476;13.316;2023-07-30T05:57:27;5.07;;;3.83;;
6825;SDS011;3451;52.476;13.316;2023-07-30T05:59:53;4.27;;;3.40;;
6825;SDS011;3451;52.476;13.316;2023-07-30T06:02:20;4.77;;;3.37;;
6825;SDS011;3451;52.476;13.316;2023-07-30T06:04:46;3.30;;;3.00;;
6825;SDS011;3451;52.476;13.316;2023-07-30T06:07:12;3.67;;;3.37;;
6825;SDS011;3451;52.476;13.316;2023-07-30T06:09:39;3.27;;;2.90;;
6825;SDS011;3451;52.476;13.316;2023-07-30T06:12:05;3.80;;;3.10;;
6825;SDS011;3451;52.476;13.316;2023-07-30T06:14:31;4.40;;;3.20;;
6825;SDS011;3451;52.476;13.316;2023-07-30T06:16:58;3.27;;;2.90;;
6825;SDS011;3451;52.476;13.316;2023-07-30T06:19:24;4.47;;;3.30;;
6825;SDS011;3451;52.476;13.316;2023-07-30T06:21:51;4.40;;;3.03;;
6825;SDS011;3451;52.476;13.316;2023-07-30T06:24:17;3.80;;;3.07;;
6825;SDS011;3451;52.476;13.316;2023-07-30T06:26:43;3.00;;;2.63;;
6825;SDS011;3451;52.476;13.316;2023-07-30T06:29:10;4.13;;;3.00;;
6825;SDS011;3451;52.476;13.316;2023-07-30T06:31:36;3.30;;;3.00;;
6825;SDS011;3451;52.476;13.316;2023-07-30T06:34:03;4.57;;;2.80;;
6825;SDS011;3451;52.476;13.316;2023-07-30T06:36:29;4.57;;;2.63;;
6825;SDS011;3451;52.476;13.316;2023-07-30T06:38:56;3.50;;;2.57;;
6825;SDS011;3451;52.476;13.316;2023-07-30T06:41:22;3.37;;;2.97;;
6825;SDS011;3451;52.476;13.316;2023-07-30T06:43:48;3.80;;;2.60;;
6825;SDS011;3451;52.476;13.316;2023-07-30T06:46:15;3.90;;;2.70;;
6825;SDS011;3451;52.476;13.316;2023-07-30T06:48:41;2.70;;;2.50;;
6825;SDS011;3451;52.476;13.316;2023-07-30T06:51:09;3.17;;;2.30;;
6825;SDS011;3451;52.476;13.316;2023-07-30T06:53:35;5.60;;;2.40;;
6825;SDS011;3451;52.476;13.316;2023-07-30T06:56:01;3.23;;;2.67;;
6825;SDS011;3451;52.476;13.316;2023-07-30T06:58:28;3.70;;;2.40;;
6825;SDS011;3451;52.476;13.316;2023-07-30T07:00:54;4.23;;;2.67;;
6825;SDS011;3451;52.476;13.316;2023-07-30T07:03:20;5.37;;;2.53;;
6825;SDS011;3451;52.476;13.316;2023-07-30T07:05:54;4.10;;;2.27;;
6825;SDS011;3451;52.476;13.316;2023-07-30T07:08:21;3.37;;;2.50;;
6825;SDS011;3451;52.476;13.316;2023-07-30T07:10:48;2.80;;;2.30;;
6825;SDS011;3451;52.476;13.316;2023-07-30T07:13:14;2.80;;;2.23;;
6825;SDS011;3451;52.476;13.316;2023-07-30T07:15:44;2.73;;;2.23;;
6825;SDS011;3451;52.476;13.316;2023-07-30T07:18:10;2.47;;;2.27;;
6825;SDS011;3451;52.476;13.316;2023-07-30T07:20:37;4.03;;;2.47;;
6825;SDS011;3451;52.476;13.316;2023-07-30T07:23:04;4.10;;;2.30;;
6825;SDS011;3451;52.476;13.316;2023-07-30T07:25:30;2.20;;;2.00;;
6825;SDS011;3451;52.476;13.316;2023-07-30T07:27:56;2.87;;;2.30;;
6825;SDS011;3451;52.476;13.316;2023-07-30T07:30:23;3.13;;;2.00;;
6825;SDS011;3451;52.476;13.316;2023-07-30T07:32:49;2.90;;;2.30;;
6825;SDS011;3451;52.476;13.316;2023-07-30T07:35:19;4.47;;;2.20;;
6825;SDS011;3451;52.476;13.316;2023-07-30T07:37:46;2.80;;;2.13;;
6825;SDS011;3451;52.476;13.316;2023-07-30T07:40:13;3.30;;;2.03;;
6825;SDS011;3451;52.476;13.316;2023-07-30T07:42:39;2.43;;;1.97;;
6825;SDS011;3451;52.476;13.316;2023-07-30T07:45:06;3.80;;;2.00;;
6825;SDS011;3451;52.476;13.316;2023-07-30T07:47:32;3.63;;;2.40;;
6825;SDS011;3451;52.476;13.316;2023-07-30T07:49:59;4.57;;;1.73;;
6825;SDS011;3451;52.476;13.316;2023-07-30T07:52:25;3.23;;;1.80;;
6825;SDS011;3451;52.476;13.316;2023-07-30T07:54:52;2.50;;;2.08;;
6825;SDS011;3451;52.476;13.316;2023-07-30T07:57:18;3.60;;;2.10;;
6825;SDS011;3451;52.476;13.316;2023-07-30T07:59:44;3.60;;;2.38;;
6825;SDS011;3451;52.476;13.316;2023-07-30T08:02:11;2.83;;;2.30;;
6825;SDS011;3451;52.476;13.316;2023-07-30T08:04:39;3.08;;;2.00;;
6825;SDS011;3451;52.476;13.316;2023-07-30T08:07:05;2.03;;;1.83;;
6825;SDS011;3451;52.476;13.316;2023-07-30T08:09:32;3.22;;;2.10;;
6825;SDS011;3451;52.476;13.316;2023-07-30T08:12:01;3.10;;;2.20;;
6825;SDS011;3451;52.476;13.316;2023-07-30T08:14:27;1.83;;;1.60;;
6825;SDS011;3451;52.476;13.316;2023-07-30T08:16:54;4.00;;;2.08;;
6825;SDS011;3451;52.476;13.316;2023-07-30T08:19:20;4.00;;;1.73;;
6825;SDS011;3451;52.476;13.316;2023-07-30T08:21:46;5.07;;;2.13;;
6825;SDS011;3451;52.476;13.316;2023-07-30T08:24:13;3.00;;;1.75;;
6825;SDS011;3451;52.476;13.316;2023-07-30T08:26:39;3.83;;;2.17;;
6825;SDS011;3451;52.476;13.316;2023-07-30T08:29:05;5.22;;;2.20;;
6825;SDS011;3451;52.476;13.316;2023-07-30T08:31:32;2.65;;;1.80;;
6825;SDS011;3451;52.476;13.316;2023-07-30T08:33:58;2.25;;;1.92;;
6825;SDS011;3451;52.476;13.316;2023-07-30T08:36:25;4.55;;;1.80;;
6825;SDS011;3451;52.476;13.316;2023-07-30T08:38:51;4.55;;;1.80;;
6825;SDS011;3451;52.476;13.316;2023-07-30T08:41:18;3.15;;;1.70;;
6825;SDS011;3451;52.476;13.316;2023-07-30T08:43:44;2.70;;;1.83;;
6825;SDS011;3451;52.476;13.316;2023-07-30T08:46:15;3.67;;;1.83;;
6825;SDS011;3451;52.476;13.316;2023-07-30T08:48:42;3.38;;;2.00;;
6825;SDS011;3451;52.476;13.316;2023-07-30T08:51:11;3.92;;;1.98;;
6825;SDS011;3451;52.476;13.316;2023-07-30T08:53:38;5.65;;;1.92;;
6825;SDS011;3451;52.476;13.316;2023-07-30T08:56:05;3.50;;;2.00;;
6825;SDS011;3451;52.476;13.316;2023-07-30T08:58:31;5.03;;;2.33;;
6825;SDS011;3451;52.476;13.316;2023-07-30T09:00:59;4.00;;;1.90;;
6825;SDS011;3451;52.476;13.316;2023-07-30T09:03:25;4.82;;;1.90;;
6825;SDS011;3451;52.476;13.316;2023-07-30T09:05:53;2.83;;;1.88;;
6825;SDS011;3451;52.476;13.316;2023-07-30T09:08:19;3.22;;;2.03;;
6825;SDS011;3451;52.476;13.316;2023-07-30T09:10:46;2.88;;;1.80;;
6825;SDS011;3451;52.476;13.316;2023-07-30T09:13:14;3.30;;;1.77;;
6825;SDS011;3451;52.476;13.316;2023-07-30T09:15:47;2.85;;;1.75;;
6825;SDS011;3451;52.476;13.316;2023-07-30T09:18:16;3.25;;;1.85;;
6825;SDS011;3451;52.476;13.316;2023-07-30T09:20:42;4.80;;;2.00;;
6825;SDS011;3451;52.476;13.316;2023-07-30T09:23:09;3.55;;;1.75;;
6825;SDS011;3451;52.476;13.316;2023-07-30T09:25:36;3.40;;;1.73;;
6825;SDS011;3451;52.476;13.316;2023-07-30T09:28:02;4.82;;;1.92;;
6825;SDS011;3451;52.476;13.316;2023-07-30T09:30:29;3.72;;;1.83;;
6825;SDS011;3451;52.476;13.316;2023-07-30T09:32:56;7.53;;;2.40;;
6825;SDS011;3451;52.476;13.316;2023-07-30T09:35:23;3.08;;;1.73;;
6825;SDS011;3451;52.476;13.316;2023-07-30T09:38:00;2.70;;;1.75;;
6825;SDS011;3451;52.476;13.316;2023-07-30T09:40:35;3.88;;;1.73;;
6825;SDS011;3451;52.476;13.316;2023-07-30T09:43:03;2.95;;;1.60;;
6825;SDS011;3451;52.476;13.316;2023-07-30T09:45:32;3.60;;;1.90;;
6825;SDS011;3451;52.476;13.316;2023-07-30T09:47:59;4.63;;;2.08;;
6825;SDS011;3451;52.476;13.316;2023-07-30T09:50:25;3.42;;;1.90;;
6825;SDS011;3451;52.476;13.316;2023-07-30T09:52:51;4.65;;;1.95;;
6825;SDS011;3451;52.476;13.316;2023-07-30T09:55:18;5.43;;;1.95;;
6825;SDS011;3451;52.476;13.316;2023-07-30T09:57:45;3.42;;;1.73;;
6825;SDS011;3451;52.476;13.316;2023-07-30T10:00:12;2.33;;;1.70;;
6825;SDS011;3451;52.476;13.316;2023-07-30T10:02:39;2.42;;;1.60;;
6825;SDS011;3451;52.476;13.316;2023-07-30T10:05:16;4.35;;;1.67;;
6825;SDS011;3451;52.476;13.316;2023-07-30T10:07:44;3.83;;;1.55;;
6825;SDS011;3451;52.476;13.316;2023-07-30T10:10:12;4.68;;;2.03;;
6825;SDS011;3451;52.476;13.316;2023-07-30T10:12:39;2.42;;;1.50;;
6825;SDS011;3451;52.476;13.316;2023-07-30T10:15:06;4.35;;;1.90;;
6825;SDS011;3451;52.476;13.316;2023-07-30T10:17:33;3.78;;;2.22;;
6825;SDS011;3451;52.476;13.316;2023-07-30T10:20:23;5.20;;;1.85;;
6825;SDS011;3451;52.476;13.316;2023-07-30T10:22:47;5.25;;;1.83;;
6825;SDS011;3451;52.476;13.316;2023-07-30T10:25:16;2.78;;;1.75;;
6825;SDS011;3451;52.476;13.316;2023-07-30T10:27:48;5.13;;;1.80;;
6825;SDS011;3451;52.476;13.316;2023-07-30T10:30:16;2.92;;;1.83;;
6825;SDS011;3451;52.476;13.316;2023-07-30T10:35:09;4.38;;;1.95;;
6825;SDS011;3451;52.476;13.316;2023-07-30T10:37:55;2.67;;;1.63;;
6825;SDS011;3451;52.476;13.316;2023-07-30T10:40:22;3.15;;;1.65;;
6825;SDS011;3451;52.476;13.316;2023-07-30T10:42:48;3.55;;;1.90;;
6825;SDS011;3451;52.476;13.316;2023-07-30T10:45:15;4.30;;;1.88;;
6825;SDS011;3451;52.476;13.316;2023-07-30T10:47:41;3.50;;;1.73;;
6825;SDS011;3451;52.476;13.316;2023-07-30T10:50:08;2.92;;;1.58;;
6825;SDS011;3451;52.476;13.316;2023-07-30T10:52:37;4.88;;;1.75;;
6825;SDS011;3451;52.476;13.316;2023-07-30T10:55:04;2.97;;;1.67;;
6825;SDS011;3451;52.476;13.316;2023-07-30T10:57:31;2.53;;;1.60;;
6825;SDS011;3451;52.476;13.316;2023-07-30T10:59:58;4.95;;;1.80;;
6825;SDS011;3451;52.476;13.316;2023-07-30T11:02:25;4.07;;;2.22;;
6825;SDS011;3451;52.476;13.316;2023-07-30T11:04:51;4.05;;;1.73;;
6825;SDS011;3451;52.476;13.316;2023-07-30T11:07:18;3.75;;;2.00;;
6825;SDS011;3451;52.476;13.316;2023-07-30T11:09:45;3.60;;;1.90;;
6825;SDS011;3451;52.476;13.316;2023-07-30T11:12:14;3.03;;;1.90;;
6825;SDS011;3451;52.476;13.316;2023-07-30T11:14:43;5.90;;;1.90;;
6825;SDS011;3451;52.476;13.316;2023-07-30T11:17:10;2.78;;;1.70;;
6825;SDS011;3451;52.476;13.316;2023-07-30T11:19:36;3.20;;;1.85;;
6825;SDS011;3451;52.476;13.316;2023-07-30T11:22:09;6.03;;;1.92;;
6825;SDS011;3451;52.476;13.316;2023-07-30T11:24:36;3.28;;;1.70;;
6825;SDS011;3451;52.476;13.316;2023-07-30T11:27:03;5.60;;;2.03;;
6825;SDS011;3451;52.476;13.316;2023-07-30T11:29:29;3.47;;;1.40;;
6825;SDS011;3451;52.476;13.316;2023-07-30T11:31:56;2.90;;;1.60;;
6825;SDS011;3451;52.476;13.316;2023-07-30T11:34:24;3.93;;;1.80;;
6825;SDS011;3451;52.476;13.316;2023-07-30T11:36:51;6.37;;;2.07;;
6825;SDS011;3451;52.476;13.316;2023-07-30T11:39:18;3.70;;;1.70;;
6825;SDS011;3451;52.476;13.316;2023-07-30T11:41:44;3.10;;;1.90;;
6825;SDS011;3451;52.476;13.316;2023-07-30T11:44:34;3.43;;;1.80;;
6825;SDS011;3451;52.476;13.316;2023-07-30T11:47:01;4.03;;;1.97;;
6825;SDS011;3451;52.476;13.316;2023-07-30T11:49:27;5.57;;;2.00;;
6825;SDS011;3451;52.476;13.316;2023-07-30T11:52:09;6.57;;;1.80;;
6825;SDS011;3451;52.476;13.316;2023-07-30T11:54:36;4.20;;;1.80;;
6825;SDS011;3451;52.476;13.316;2023-07-30T11:57:03;3.07;;;1.60;;
6825;SDS011;3451;52.476;13.316;2023-07-30T11:59:30;4.03;;;1.83;;
6825;SDS011;3451;52.476;13.316;2023-07-30T12:01:57;6.17;;;1.90;;
6825;SDS011;3451;52.476;13.316;2023-07-30T12:04:23;4.97;;;3.23;;
6825;SDS011;3451;52.476;13.316;2023-07-30T12:06:51;4.47;;;1.90;;
6825;SDS011;3451;52.476;13.316;2023-07-30T12:09:19;5.67;;;2.30;;
6825;SDS011;3451;52.476;13.316;2023-07-30T12:11:56;3.37;;;1.90;;
6825;SDS011;3451;52.476;13.316;2023-07-30T12:14:24;2.17;;;1.70;;
6825;SDS011;3451;52.476;13.316;2023-07-30T12:16:57;2.77;;;1.80;;
6825;SDS011;3451;52.476;13.316;2023-07-30T12:19:23;3.53;;;2.10;;
6825;SDS011;3451;52.476;13.316;2023-07-30T12:21:50;5.10;;;2.00;;
6825;SDS011;3451;52.476;13.316;2023-07-30T12:24:16;3.73;;;2.03;;
6825;SDS011;3451;52.476;13.316;2023-07-30T12:26:42;3.17;;;1.97;;
6825;SDS011;3451;52.476;13.316;2023-07-30T12:29:09;2.90;;;1.90;;
6825;SDS011;3451;52.476;13.316;2023-07-30T12:31:35;3.13;;;2.00;;
6825;SDS011;3451;52.476;13.316;2023-07-30T12:34:02;4.60;;;2.27;;
6825;SDS011;3451;52.476;13.316;2023-07-30T12:36:29;3.40;;;2.10;;
6825;SDS011;3451;52.476;13.316;2023-07-30T12:38:55;6.53;;;2.10;;
6825;SDS011;3451;52.476;13.316;2023-07-30T12:41:22;5.33;;;2.33;;
6825;SDS011;3451;52.476;13.316;2023-07-30T12:43:52;5.77;;;2.20;;
6825;SDS011;3451;52.476;13.316;2023-07-30T12:46:19;3.53;;;2.20;;
6825;SDS011;3451;52.476;13.316;2023-07-30T12:48:45;5.30;;;2.43;;
6825;SDS011;3451;52.476;13.316;2023-07-30T12:51:12;5.13;;;2.27;;
6825;SDS011;3451;52.476;13.316;2023-07-30T12:53:38;6.20;;;2.20;;
6825;SDS011;3451;52.476;13.316;2023-07-30T12:56:04;4.73;;;2.00;;
6825;SDS011;3451;52.476;13.316;2023-07-30T12:58:31;5.33;;;2.20;;
6825;SDS011;3451;52.476;13.316;2023-07-30T13:00:57;4.33;;;2.00;;
6825;SDS011;3451;52.476;13.316;2023-07-30T13:03:23;3.60;;;2.13;;
6825;SDS011;3451;52.476;13.316;2023-07-30T13:05:50;5.13;;;1.93;;
6825;SDS011;3451;52.476;13.316;2023-07-30T13:08:16;3.70;;;1.90;;
6825;SDS011;3451;52.476;13.316;2023-07-30T13:10:43;5.87;;;2.20;;
6825;SDS011;3451;52.476;13.316;2023-07-30T13:13:09;2.47;;;2.13;;
6825;SDS011;3451;52.476;13.316;2023-07-30T13:15:36;3.90;;;2.30;;
6825;SDS011;3451;52.476;13.316;2023-07-30T13:18:02;4.37;;;1.93;;
6825;SDS011;3451;52.476;13.316;2023-07-30T13:20:29;2.97;;;2.20;;
6825;SDS011;3451;52.476;13.316;2023-07-30T13:22:57;6.87;;;2.30;;
6825;SDS011;3451;52.476;13.316;2023-07-30T13:25:23;3.17;;;2.30;;
6825;SDS011;3451;52.476;13.316;2023-07-30T13:27:50;3.70;;;2.10;;
6825;SDS011;3451;52.476;13.316;2023-07-30T13:30:16;3.93;;;2.13;;
6825;SDS011;3451;52.476;13.316;2023-07-30T13:32:43;3.60;;;2.27;;
6825;SDS011;3451;52.476;13.316;2023-07-30T13:35:09;4.13;;;2.23;;
6825;SDS011;3451;52.476;13.316;2023-07-30T13:37:36;4.93;;;2.33;;
6825;SDS011;3451;52.476;13.316;2023-07-30T13:40:02;3.60;;;1.90;;
6825;SDS011;3451;52.476;13.316;2023-07-30T13:42:28;3.20;;;1.83;;
6825;SDS011;3451;52.476;13.316;2023-07-30T13:44:55;3.53;;;1.90;;
6825;SDS011;3451;52.476;13.316;2023-07-30T13:47:21;3.93;;;2.07;;
6825;SDS011;3451;52.476;13.316;2023-07-30T13:49:48;2.57;;;1.73;;
6825;SDS011;3451;52.476;13.316;2023-07-30T13:52:14;3.13;;;1.67;;
6825;SDS011;3451;52.476;13.316;2023-07-30T13:54:41;3.17;;;1.23;;
6825;SDS011;3451;52.476;13.316;2023-07-30T13:57:08;2.53;;;1.50;;
6825;SDS011;3451;52.476;13.316;2023-07-30T13:59:35;4.70;;;1.60;;
6825;SDS011;3451;52.476;13.316;2023-07-30T14:02:01;2.60;;;1.70;;
6825;SDS011;3451;52.476;13.316;2023-07-30T14:04:28;2.23;;;1.40;;
6825;SDS011;3451;52.476;13.316;2023-07-30T14:06:54;3.20;;;1.30;;
6825;SDS011;3451;52.476;13.316;2023-07-30T14:09:21;3.53;;;1.40;;
6825;SDS011;3451;52.476;13.316;2023-07-30T14:11:47;2.43;;;1.40;;
6825;SDS011;3451;52.476;13.316;2023-07-30T14:14:13;1.60;;;1.10;;
6825;SDS011;3451;52.476;13.316;2023-07-30T14:16:40;1.73;;;1.20;;
6825;SDS011;3451;52.476;13.316;2023-07-30T14:19:06;4.83;;;1.40;;
6825;SDS011;3451;52.476;13.316;2023-07-30T14:21:33;3.10;;;1.43;;
6825;SDS011;3451;52.476;13.316;2023-07-30T14:23:59;3.03;;;1.30;;
6825;SDS011;3451;52.476;13.316;2023-07-30T14:26:25;2.53;;;1.40;;
6825;SDS011;3451;52.476;13.316;2023-07-30T14:28:52;2.57;;;1.40;;
6825;SDS011;3451;52.476;13.316;2023-07-30T14:31:18;3.53;;;1.50;;
6825;SDS011;3451;52.476;13.316;2023-07-30T14:33:44;3.87;;;1.60;;
6825;SDS011;3451;52.476;13.316;2023-07-30T14:36:11;3.77;;;1.33;;
6825;SDS011;3451;52.476;13.316;2023-07-30T14:38:38;2.77;;;1.20;;
6825;SDS011;3451;52.476;13.316;2023-07-30T14:41:04;4.17;;;1.50;;
6825;SDS011;3451;52.476;13.316;2023-07-30T14:43:32;5.80;;;1.93;;
6825;SDS011;3451;52.476;13.316;2023-07-30T14:45:58;2.07;;;1.40;;
6825;SDS011;3451;52.476;13.316;2023-07-30T14:48:25;4.77;;;1.93;;
6825;SDS011;3451;52.476;13.316;2023-07-30T14:50:51;2.93;;;1.60;;
6825;SDS011;3451;52.476;13.316;2023-07-30T14:53:18;3.40;;;1.47;;
6825;SDS011;3451;52.476;13.316;2023-07-30T14:55:44;2.60;;;1.40;;
6825;SDS011;3451;52.476;13.316;2023-07-30T14:58:10;2.87;;;1.60;;
6825;SDS011;3451;52.476;13.316;2023-07-30T15:00:37;3.30;;;1.63;;